Time;durP1;ratioP1;P1;durP2;ratioP2;P2;SDS_P1;SDS_P2;PMS_P1;PMS_P2;Temp;Humidity;BMP_temperature;BMP_pressure;BME280_temperature;BME280_humidity;BME280_pressure;Samples;Min_cycle;Max_cycle;Signal;HPM_P1;HPM_P2
2024/02/11 00:00:05;;;;;;;;;11.00;9.67;;;;;;;;5079683;28;46563;-77
2024/02/11 00:02:37;;;;;;;;;13.33;13.00;;;;;;;;5080917;27;45306;-78
2024/02/11 00:05:02;;;;;;;;;15.00;12.00;;;;;;;;5081256;27;45292;-78
2024/02/11 00:07:27;;;;;;;;;19.67;15.33;;;;;;;;5080998;27;45283;-78
2024/02/11 00:09:52;;;;;;;;;9.33;9.33;;;;;;;;5081005;27;45213;-78
2024/02/11 00:12:17;;;;;;;;;13.67;12.33;;;;;;;;5081287;27;45247;-77
2024/02/11 00:14:44;;;;;;;;;8.33;8.33;;;;;;;;5081271;27;45218;-78
2024/02/11 00:17:10;;;;;;;;;10.67;7.00;;;;;;;;5080917;27;45350;-78
2024/02/11 00:19:35;;;;;;;;;10.33;10.33;;;;;;;;5080693;28;46094;-77
2024/02/11 00:22:01;;;;;;;;;10.33;10.33;;;;;;;;5080868;27;45399;-77
2024/02/11 00:24:29;;;;;;;;;12.00;9.33;;;;;;;;5081020;27;45259;-77
2024/02/11 00:26:55;;;;;;;;;9.00;7.67;;;;;;;;5074190;27;45323;-76
2024/02/11 00:29:20;;;;;;;;;12.33;12.33;;;;;;;;5059034;28;47744;-77
2024/02/11 00:31:45;;;;;;;;;13.33;11.67;;;;;;;;5060264;28;45337;-77
2024/02/11 00:34:10;;;;;;;;;14.00;13.33;;;;;;;;5060014;28;45325;-77
2024/02/11 00:36:36;;;;;;;;;11.00;10.00;;;;;;;;5059296;28;45274;-78
2024/02/11 00:39:01;;;;;;;;;11.67;10.33;;;;;;;;5060273;28;45694;-77
2024/02/11 00:41:28;;;;;;;;;13.00;10.33;;;;;;;;5058889;28;46017;-77
2024/02/11 00:43:53;;;;;;;;;13.00;13.00;;;;;;;;5060406;28;45327;-77
2024/02/11 00:46:18;;;;;;;;;11.33;8.33;;;;;;;;5060029;28;45270;-77
2024/02/11 00:48:45;;;;;;;;;11.67;9.33;;;;;;;;5060129;28;46478;-77
2024/02/11 00:51:10;;;;;;;;;7.33;7.33;;;;;;;;5058811;28;45465;-77
2024/02/11 00:53:36;;;;;;;;;8.67;8.00;;;;;;;;5059931;28;45342;-77
2024/02/11 00:56:02;;;;;;;;;12.67;9.00;;;;;;;;5058691;28;45465;-77
2024/02/11 00:58:27;;;;;;;;;7.33;7.33;;;;;;;;5077058;28;45300;-77
2024/02/11 01:00:52;;;;;;;;;13.00;8.33;;;;;;;;5080020;27;45382;-77
2024/02/11 01:03:17;;;;;;;;;12.33;9.00;;;;;;;;5079832;27;45415;-78
2024/02/11 01:05:43;;;;;;;;;7.67;6.33;;;;;;;;5070056;27;45433;-77
2024/02/11 01:08:09;;;;;;;;;9.00;8.00;;;;;;;;5058480;28;47156;-76
2024/02/11 01:10:34;;;;;;;;;6.67;6.00;;;;;;;;5059272;28;45377;-77
2024/02/11 01:12:59;;;;;;;;;9.33;9.33;;;;;;;;5058895;28;45345;-77
2024/02/11 01:15:26;;;;;;;;;6.00;6.00;;;;;;;;5059512;28;45364;-77
2024/02/11 01:17:52;;;;;;;;;10.33;10.00;;;;;;;;5059828;28;46059;-77
2024/02/11 01:20:17;;;;;;;;;8.00;6.33;;;;;;;;5041487;28;45914;-77
2024/02/11 01:22:43;;;;;;;;;8.00;7.00;;;;;;;;5059899;28;45322;-77
2024/02/11 01:25:09;;;;;;;;;8.00;5.67;;;;;;;;5059711;28;45516;-77
2024/02/11 01:27:37;;;;;;;;;8.67;8.00;;;;;;;;5059538;28;45311;-77
2024/02/11 01:30:03;;;;;;;;;10.33;9.00;;;;;;;;5059651;28;45378;-77
2024/02/11 01:32:28;;;;;;;;;9.00;7.00;;;;;;;;5058120;28;45338;-77
2024/02/11 01:34:54;;;;;;;;;14.67;8.33;;;;;;;;5059480;28;45475;-77
2024/02/11 01:37:19;;;;;;;;;8.00;7.00;;;;;;;;5058169;28;48206;-77
2024/02/11 01:39:44;;;;;;;;;11.67;7.00;;;;;;;;5059523;28;45515;-77
2024/02/11 01:42:09;;;;;;;;;10.00;7.33;;;;;;;;5059471;28;45545;-77
2024/02/11 01:44:34;;;;;;;;;6.00;6.00;;;;;;;;5059240;28;45493;-77
2024/02/11 01:47:02;;;;;;;;;5.67;4.67;;;;;;;;5059215;28;45309;-77
2024/02/11 01:49:28;;;;;;;;;7.00;6.33;;;;;;;;5058123;28;45903;-77
2024/02/11 01:51:54;;;;;;;;;8.00;5.33;;;;;;;;5059277;28;45265;-76
2024/02/11 01:54:20;;;;;;;;;9.33;8.00;;;;;;;;5058075;28;46356;-77
2024/02/11 01:56:48;;;;;;;;;8.33;7.00;;;;;;;;5061935;28;46330;-77
2024/02/11 01:59:13;;;;;;;;;10.00;8.00;;;;;;;;5079523;27;45384;-77
2024/02/11 02:01:39;;;;;;;;;11.00;7.00;;;;;;;;5078118;28;45393;-77
2024/02/11 02:04:04;;;;;;;;;6.00;6.00;;;;;;;;5077997;28;47038;-77
2024/02/11 02:06:29;;;;;;;;;7.33;6.67;;;;;;;;5079492;27;45502;-78
2024/02/11 02:08:55;;;;;;;;;8.67;6.00;;;;;;;;5078129;28;45291;-77
2024/02/11 02:11:21;;;;;;;;;7.67;6.00;;;;;;;;5079663;27;45397;-76
2024/02/11 02:13:47;;;;;;;;;6.33;5.33;;;;;;;;5079358;27;45533;-77
2024/02/11 02:16:12;;;;;;;;;8.00;8.00;;;;;;;;5080673;27;46048;-78
2024/02/11 02:18:37;;;;;;;;;6.00;6.00;;;;;;;;5082852;27;45370;-78
2024/02/11 02:21:04;;;;;;;;;6.67;6.00;;;;;;;;5083116;27;45464;-77
2024/02/11 02:23:30;;;;;;;;;10.67;6.00;;;;;;;;5082924;27;45497;-77
2024/02/11 02:25:55;;;;;;;;;5.33;4.00;;;;;;;;5082463;27;45620;-78
2024/02/11 02:28:20;;;;;;;;;4.00;4.00;;;;;;;;5082564;28;45239;-77
2024/02/11 02:30:46;;;;;;;;;7.00;5.33;;;;;;;;5062450;28;45300;-77
2024/02/11 02:33:11;;;;;;;;;4.00;4.00;;;;;;;;5062229;28;45356;-77
2024/02/11 02:35:36;;;;;;;;;3.00;3.00;;;;;;;;5061068;28;45402;-77
2024/02/11 02:38:02;;;;;;;;;6.00;5.33;;;;;;;;5062312;28;45444;-77
2024/02/11 02:40:28;;;;;;;;;7.00;5.00;;;;;;;;5062389;28;45345;-77
2024/02/11 02:42:53;;;;;;;;;4.67;4.00;;;;;;;;5062107;28;45327;-77
2024/02/11 02:45:18;;;;;;;;;4.00;4.00;;;;;;;;5060529;28;47314;-77
2024/02/11 02:47:46;;;;;;;;;5.33;5.00;;;;;;;;5062256;28;45362;-76
2024/02/11 02:50:14;;;;;;;;;4.00;4.00;;;;;;;;5062303;28;45288;-77
2024/02/11 02:52:39;;;;;;;;;3.00;3.00;;;;;;;;5061824;28;45335;-78
2024/02/11 02:55:07;;;;;;;;;4.33;4.00;;;;;;;;5060487;28;47585;-77
2024/02/11 02:57:34;;;;;;;;;4.67;3.00;;;;;;;;5071432;28;45396;-77
2024/02/11 03:00:00;;;;;;;;;4.33;4.00;;;;;;;;5082375;27;45381;-78
2024/02/11 03:02:27;;;;;;;;;3.67;3.33;;;;;;;;5082023;27;45382;-78
2024/02/11 03:04:54;;;;;;;;;1.67;1.00;;;;;;;;5081968;28;46266;-76
2024/02/11 03:07:19;;;;;;;;;4.67;3.00;;;;;;;;5082319;27;45318;-77
2024/02/11 03:09:44;;;;;;;;;4.33;3.33;;;;;;;;5082335;27;45325;-77
2024/02/11 03:12:09;;;;;;;;;4.67;4.67;;;;;;;;5082200;27;45210;-77
2024/02/11 03:14:35;;;;;;;;;4.33;3.67;;;;;;;;5081965;27;46364;-77
2024/02/11 03:17:00;;;;;;;;;4.00;3.67;;;;;;;;5081843;27;45211;-77
2024/02/11 03:19:26;;;;;;;;;2.00;2.00;;;;;;;;5080793;28;45379;-77
2024/02/11 03:21:51;;;;;;;;;5.33;4.00;;;;;;;;5080386;28;46165;-77
2024/02/11 03:24:16;;;;;;;;;4.00;4.00;;;;;;;;5081838;28;46375;-77
2024/02/11 03:26:42;;;;;;;;;5.33;5.33;;;;;;;;5081116;27;45460;-77
2024/02/11 03:29:08;;;;;;;;;2.67;2.67;;;;;;;;5081971;27;45489;-77
2024/02/11 03:31:34;;;;;;;;;6.00;4.67;;;;;;;;5080733;27;45295;-77
2024/02/11 03:34:00;;;;;;;;;3.67;3.67;;;;;;;;5080070;27;45489;-77
2024/02/11 03:36:26;;;;;;;;;2.33;2.33;;;;;;;;5080580;27;45301;-77
2024/02/11 03:38:52;;;;;;;;;2.67;2.67;;;;;;;;5080288;28;45338;-77
2024/02/11 03:41:18;;;;;;;;;2.00;2.00;;;;;;;;5081548;27;45317;-76
2024/02/11 03:43:43;;;;;;;;;3.67;3.67;;;;;;;;5081518;27;45275;-77
2024/02/11 03:46:08;;;;;;;;;2.67;2.00;;;;;;;;5081313;28;45358;-77
2024/02/11 03:48:34;;;;;;;;;8.67;4.00;;;;;;;;5081661;27;45416;-77
2024/02/11 03:51:02;;;;;;;;;3.67;3.67;;;;;;;;5081520;27;45355;-77
2024/02/11 03:53:27;;;;;;;;;8.00;3.67;;;;;;;;5081271;27;46282;-77
2024/02/11 03:55:53;;;;;;;;;5.00;3.00;;;;;;;;5081350;27;45286;-77
2024/02/11 03:58:18;;;;;;;;;4.33;3.00;;;;;;;;5065384;27;45512;-77
2024/02/11 04:00:44;;;;;;;;;5.33;4.00;;;;;;;;5060629;28;45299;-76
2024/02/11 04:03:10;;;;;;;;;2.00;2.00;;;;;;;;5061040;28;45347;-77
2024/02/11 04:05:38;;;;;;;;;3.67;3.67;;;;;;;;5060836;28;45387;-77
2024/02/11 04:08:07;;;;;;;;;3.00;2.33;;;;;;;;5061173;28;45374;-76
2024/02/11 04:10:36;;;;;;;;;3.67;3.67;;;;;;;;5060582;28;45493;-77
2024/02/11 04:13:01;;;;;;;;;4.33;3.67;;;;;;;;5058193;28;46013;-76
2024/02/11 04:15:27;;;;;;;;;3.33;1.00;;;;;;;;5060584;28;45208;-77
2024/02/11 04:17:53;;;;;;;;;6.33;5.00;;;;;;;;5061012;28;45305;-77
2024/02/11 04:20:24;;;;;;;;;3.67;3.33;;;;;;;;5059203;28;45885;-77
2024/02/11 04:22:58;;;;;;;;;1.67;1.67;;;;;;;;5060410;28;46012;-76
2024/02/11 04:25:34;;;;;;;;;2.67;2.67;;;;;;;;5060392;28;45413;-77
2024/02/11 04:27:59;;;;;;;;;5.00;4.00;;;;;;;;5060751;28;45243;-76
2024/02/11 04:30:27;;;;;;;;;6.00;2.67;;;;;;;;5060364;28;45319;-77
2024/02/11 04:32:53;;;;;;;;;2.00;2.00;;;;;;;;5060498;28;46186;-76
2024/02/11 04:35:19;;;;;;;;;5.00;3.67;;;;;;;;5059733;28;45243;-77
2024/02/11 04:37:49;;;;;;;;;1.00;1.00;;;;;;;;5058810;28;45493;-76
2024/02/11 04:40:15;;;;;;;;;3.67;3.00;;;;;;;;5059635;28;45372;-77
2024/02/11 04:42:41;;;;;;;;;4.00;3.33;;;;;;;;5060135;28;46443;-76
2024/02/11 04:45:07;;;;;;;;;3.00;3.00;;;;;;;;5060345;28;45601;-77
2024/02/11 04:47:35;;;;;;;;;5.33;4.00;;;;;;;;5060229;28;45191;-77
2024/02/11 04:50:00;;;;;;;;;4.00;3.00;;;;;;;;5060116;28;45350;-76
2024/02/11 04:52:27;;;;;;;;;2.67;2.00;;;;;;;;5059951;28;45245;-76
2024/02/11 04:54:52;;;;;;;;;3.00;2.33;;;;;;;;5058840;28;46299;-76
2024/02/11 04:57:17;;;;;;;;;4.00;3.00;;;;;;;;5067398;28;45283;-76
2024/02/11 04:59:42;;;;;;;;;2.00;2.00;;;;;;;;5080517;27;45346;-76
2024/02/11 05:02:08;;;;;;;;;4.00;3.67;;;;;;;;5080233;27;46287;-76
2024/02/11 05:04:33;;;;;;;;;1.33;1.33;;;;;;;;5079006;28;45369;-76
2024/02/11 05:06:58;;;;;;;;;4.33;2.00;;;;;;;;5079064;28;45338;-77
2024/02/11 05:09:27;;;;;;;;;2.00;2.00;;;;;;;;5080343;28;45382;-76
2024/02/11 05:11:54;;;;;;;;;4.00;3.00;;;;;;;;5080118;27;46175;-76
2024/02/11 05:14:19;;;;;;;;;2.67;2.67;;;;;;;;5067135;27;45248;-77
2024/02/11 05:16:45;;;;;;;;;3.00;2.00;;;;;;;;5057641;28;45340;-77
2024/02/11 05:19:14;;;;;;;;;2.00;2.00;;;;;;;;5058752;28;45517;-76
2024/02/11 05:21:40;;;;;;;;;4.00;3.33;;;;;;;;5059023;28;46901;-76
2024/02/11 05:24:05;;;;;;;;;2.67;2.67;;;;;;;;5059761;28;45342;-76
2024/02/11 05:26:30;;;;;;;;;2.00;2.00;;;;;;;;5059686;28;45393;-76
2024/02/11 05:29:01;;;;;;;;;5.33;2.67;;;;;;;;5059743;28;45309;-76
2024/02/11 05:31:29;;;;;;;;;3.00;1.67;;;;;;;;5059283;28;46467;-77
2024/02/11 05:33:55;;;;;;;;;1.33;1.00;;;;;;;;5059433;28;45342;-76
2024/02/11 05:36:20;;;;;;;;;6.00;5.33;;;;;;;;5059754;28;45441;-77
2024/02/11 05:38:47;;;;;;;;;6.33;2.67;;;;;;;;5059470;28;45247;-76
2024/02/11 05:41:12;;;;;;;;;4.00;3.33;;;;;;;;5057731;28;47325;-77
2024/02/11 05:43:37;;;;;;;;;4.00;2.00;;;;;;;;5059277;28;45306;-77
2024/02/11 05:46:03;;;;;;;;;2.33;2.33;;;;;;;;5059358;28;45329;-77
2024/02/11 05:48:28;;;;;;;;;8.00;4.67;;;;;;;;5059334;28;45211;-78
2024/02/11 05:50:54;;;;;;;;;1.33;1.33;;;;;;;;5058940;28;45291;-77
2024/02/11 05:53:19;;;;;;;;;4.33;3.00;;;;;;;;5059336;28;45274;-78
2024/02/11 05:55:44;;;;;;;;;4.00;3.00;;;;;;;;5059415;28;45273;-77
2024/02/11 05:58:09;;;;;;;;;8.00;5.00;;;;;;;;5072459;28;46911;-76
2024/02/11 06:00:36;;;;;;;;;4.00;3.33;;;;;;;;5079241;28;46255;-77
2024/02/11 06:03:02;;;;;;;;;4.00;4.00;;;;;;;;5078189;28;46060;-77
2024/02/11 06:05:27;;;;;;;;;3.67;3.33;;;;;;;;5078126;28;45374;-76
2024/02/11 06:07:59;;;;;;;;;3.33;3.33;;;;;;;;5078903;27;45398;-76
2024/02/11 06:10:33;;;;;;;;;3.00;3.00;;;;;;;;5078739;27;46178;-76
2024/02/11 06:12:58;;;;;;;;;4.00;3.00;;;;;;;;5077977;28;45275;-77
2024/02/11 06:15:25;;;;;;;;;3.33;3.33;;;;;;;;5079361;27;45169;-77
2024/02/11 06:17:52;;;;;;;;;7.00;3.00;;;;;;;;5077764;28;46163;-77
2024/02/11 06:20:18;;;;;;;;;6.00;5.33;;;;;;;;5077802;28;47119;-76
2024/02/11 06:22:44;;;;;;;;;4.00;4.00;;;;;;;;5079282;28;45323;-77
2024/02/11 06:25:11;;;;;;;;;3.33;2.00;;;;;;;;5079271;27;45333;-77
2024/02/11 06:27:39;;;;;;;;;6.67;5.67;;;;;;;;5079189;28;45255;-77
2024/02/11 06:30:08;;;;;;;;;2.67;2.67;;;;;;;;5078769;27;46457;-77
2024/02/11 06:32:33;;;;;;;;;4.67;3.67;;;;;;;;5077849;28;45787;-77
2024/02/11 06:34:59;;;;;;;;;7.00;5.00;;;;;;;;5079211;27;45352;-77
2024/02/11 06:37:24;;;;;;;;;5.33;2.67;;;;;;;;5079018;27;45321;-77
2024/02/11 06:39:49;;;;;;;;;4.00;3.00;;;;;;;;5079090;28;45594;-76
2024/02/11 06:42:15;;;;;;;;;2.00;2.00;;;;;;;;5078933;27;45397;-77
2024/02/11 06:44:40;;;;;;;;;6.00;3.00;;;;;;;;5079243;27;45358;-76
2024/02/11 06:47:08;;;;;;;;;3.00;3.00;;;;;;;;5060951;27;45478;-77
2024/02/11 06:49:34;;;;;;;;;2.67;2.67;;;;;;;;5058518;28;45330;-77
2024/02/11 06:51:59;;;;;;;;;3.67;2.33;;;;;;;;5056210;28;45401;-77
2024/02/11 06:54:25;;;;;;;;;1.00;1.00;;;;;;;;5058736;28;45243;-77
2024/02/11 06:56:52;;;;;;;;;2.33;1.33;;;;;;;;5062161;28;45141;-77
2024/02/11 06:59:18;;;;;;;;;1.67;1.67;;;;;;;;5078702;27;45369;-77
2024/02/11 07:01:43;;;;;;;;;1.67;1.67;;;;;;;;5079815;27;45425;-76
2024/02/11 07:04:12;;;;;;;;;3.33;2.33;;;;;;;;5082365;27;45329;-76
2024/02/11 07:06:40;;;;;;;;;3.00;2.67;;;;;;;;5082235;27;45473;-77
2024/02/11 07:09:10;;;;;;;;;3.00;1.33;;;;;;;;5082213;28;46398;-77
2024/02/11 07:11:36;;;;;;;;;1.00;1.00;;;;;;;;5082186;28;45381;-76
2024/02/11 07:14:01;;;;;;;;;4.67;3.67;;;;;;;;5080955;28;45345;-76
2024/02/11 07:16:28;;;;;;;;;5.67;3.00;;;;;;;;5081831;27;45475;-77
2024/02/11 07:18:54;;;;;;;;;3.67;2.33;;;;;;;;5081859;28;45275;-77
2024/02/11 07:21:19;;;;;;;;;4.67;2.67;;;;;;;;5081950;27;45352;-77
2024/02/11 07:23:44;;;;;;;;;2.33;2.33;;;;;;;;5082139;27;45244;-77
2024/02/11 07:26:12;;;;;;;;;4.00;2.00;;;;;;;;5081679;27;45329;-77
2024/02/11 07:28:37;;;;;;;;;3.67;2.00;;;;;;;;5081741;27;46060;-76
2024/02/11 07:31:03;;;;;;;;;2.00;2.00;;;;;;;;5081549;28;45321;-76
2024/02/11 07:33:28;;;;;;;;;2.33;2.00;;;;;;;;5080519;28;45342;-76
2024/02/11 07:35:53;;;;;;;;;5.00;3.67;;;;;;;;5081717;27;45297;-77
2024/02/11 07:38:19;;;;;;;;;6.00;3.67;;;;;;;;5081607;27;45297;-76
2024/02/11 07:40:45;;;;;;;;;4.00;3.00;;;;;;;;5081804;27;45349;-77
2024/02/11 07:43:10;;;;;;;;;3.67;3.67;;;;;;;;5081577;27;45364;-77
2024/02/11 07:45:38;;;;;;;;;4.33;2.00;;;;;;;;5081274;27;45394;-77
2024/02/11 07:48:05;;;;;;;;;4.33;3.00;;;;;;;;5081390;28;45992;-77
2024/02/11 07:50:34;;;;;;;;;1.33;1.00;;;;;;;;5081336;28;45184;-76
2024/02/11 07:52:59;;;;;;;;;1.00;1.00;;;;;;;;5081624;27;45253;-77
2024/02/11 07:55:25;;;;;;;;;1.00;1.00;;;;;;;;5081186;27;46382;-77
2024/02/11 07:57:50;;;;;;;;;3.00;2.00;;;;;;;;5068831;27;46272;-78
2024/02/11 08:00:16;;;;;;;;;2.00;2.00;;;;;;;;5060837;28;45337;-78
2024/02/11 08:02:41;;;;;;;;;3.00;2.33;;;;;;;;5061194;28;45205;-77
2024/02/11 08:05:06;;;;;;;;;2.00;1.67;;;;;;;;5059508;28;46491;-79
2024/02/11 08:07:32;;;;;;;;;3.33;3.00;;;;;;;;5059533;28;48468;-78
2024/02/11 08:09:57;;;;;;;;;2.00;1.33;;;;;;;;5061075;28;45299;-79
2024/02/11 08:12:22;;;;;;;;;4.33;3.00;;;;;;;;5061076;28;45215;-77
2024/02/11 08:14:47;;;;;;;;;5.00;3.67;;;;;;;;5060857;28;45456;-78
2024/02/11 08:17:12;;;;;;;;;4.67;4.67;;;;;;;;5059823;28;46199;-77
2024/02/11 08:19:38;;;;;;;;;4.67;4.00;;;;;;;;5060129;28;45354;-79
2024/02/11 08:22:06;;;;;;;;;3.67;2.00;;;;;;;;5060849;28;45292;-78
2024/02/11 08:24:33;;;;;;;;;1.00;1.00;;;;;;;;5060581;28;45374;-78
2024/02/11 08:26:58;;;;;;;;;3.00;3.00;;;;;;;;5060534;28;45354;-77
2024/02/11 08:29:23;;;;;;;;;1.67;1.67;;;;;;;;5059115;28;45858;-77
2024/02/11 08:31:49;;;;;;;;;3.00;2.33;;;;;;;;5059133;28;45536;-78
2024/02/11 08:34:15;;;;;;;;;2.33;2.00;;;;;;;;5060456;28;45423;-76
2024/02/11 08:36:41;;;;;;;;;3.00;3.00;;;;;;;;5060132;28;46018;-77
2024/02/11 08:39:06;;;;;;;;;5.67;3.00;;;;;;;;5060608;28;45312;-78
2024/02/11 08:41:33;;;;;;;;;3.00;3.00;;;;;;;;5058952;28;45247;-78
2024/02/11 08:43:59;;;;;;;;;4.00;3.67;;;;;;;;5058833;28;45475;-79
2024/02/11 08:46:24;;;;;;;;;3.67;3.33;;;;;;;;5060275;28;45560;-76
2024/02/11 08:48:49;;;;;;;;;6.00;4.00;;;;;;;;5060301;28;45353;-76
2024/02/11 08:51:20;;;;;;;;;5.33;3.67;;;;;;;;5060261;28;45298;-79
2024/02/11 08:53:45;;;;;;;;;3.00;3.00;;;;;;;;5060001;28;45423;-79
2024/02/11 08:56:10;;;;;;;;;2.33;2.33;;;;;;;;5057143;28;46392;-79
2024/02/11 08:58:35;;;;;;;;;3.00;3.00;;;;;;;;5059744;28;45485;-79
2024/02/11 09:01:00;;;;;;;;;4.67;3.00;;;;;;;;5057200;28;46382;-78
2024/02/11 09:03:26;;;;;;;;;3.67;3.00;;;;;;;;5039748;28;46175;-79
2024/02/11 09:05:52;;;;;;;;;3.00;3.00;;;;;;;;5047476;28;47196;-79
2024/02/11 09:08:18;;;;;;;;;1.33;1.33;;;;;;;;5060013;28;45263;-79
2024/02/11 09:10:43;;;;;;;;;1.67;0.33;;;;;;;;5056815;28;45492;-77
2024/02/11 09:13:10;;;;;;;;;3.67;3.00;;;;;;;;5059911;28;45211;-78
2024/02/11 09:15:36;;;;;;;;;3.33;1.67;;;;;;;;5058647;28;46241;-78
2024/02/11 09:18:01;;;;;;;;;2.67;2.67;;;;;;;;5059827;28;45400;-78
2024/02/11 09:20:26;;;;;;;;;2.33;2.33;;;;;;;;5059701;28;45552;-78
2024/02/11 09:22:52;;;;;;;;;1.67;1.67;;;;;;;;5058831;28;45384;-78
2024/02/11 09:25:17;;;;;;;;;2.67;2.67;;;;;;;;5058517;28;45637;-78
2024/02/11 09:27:43;;;;;;;;;3.67;3.00;;;;;;;;5059509;28;45677;-76
2024/02/11 09:30:11;;;;;;;;;4.00;3.00;;;;;;;;5059548;28;45388;-76
2024/02/11 09:32:36;;;;;;;;;3.67;3.00;;;;;;;;5055315;28;45371;-77
2024/02/11 09:35:02;;;;;;;;;4.00;3.00;;;;;;;;5056575;28;46318;-76
2024/02/11 09:37:27;;;;;;;;;4.33;4.00;;;;;;;;5059168;28;45336;-78
2024/02/11 09:39:52;;;;;;;;;1.00;1.00;;;;;;;;5059629;28;45424;-77
2024/02/11 09:42:19;;;;;;;;;2.33;1.67;;;;;;;;5059135;28;45464;-77
2024/02/11 09:44:46;;;;;;;;;1.67;1.67;;;;;;;;5058027;28;48521;-77
2024/02/11 09:47:13;;;;;;;;;1.67;1.67;;;;;;;;5059014;28;45438;-75
2024/02/11 09:49:41;;;;;;;;;7.33;5.00;;;;;;;;5059323;28;45405;-77
2024/02/11 09:52:07;;;;;;;;;7.33;5.33;;;;;;;;5059223;28;45345;-77
2024/02/11 09:54:32;;;;;;;;;8.00;5.33;;;;;;;;5059336;28;45330;-76
2024/02/11 09:56:58;;;;;;;;;4.33;2.67;;;;;;;;5062358;28;45904;-77
2024/02/11 09:59:26;;;;;;;;;2.00;2.00;;;;;;;;5079872;28;45301;-76
2024/02/11 10:01:53;;;;;;;;;3.67;3.67;;;;;;;;5079443;27;45319;-77
2024/02/11 10:04:19;;;;;;;;;4.00;4.00;;;;;;;;5079192;27;45929;-78
2024/02/11 10:06:45;;;;;;;;;6.00;4.00;;;;;;;;5078883;27;45333;-77
2024/02/11 10:09:12;;;;;;;;;3.00;3.00;;;;;;;;5079707;27;45521;-76
2024/02/11 10:11:40;;;;;;;;;3.00;2.33;;;;;;;;5079446;27;45425;-76
2024/02/11 10:14:13;;;;;;;;;3.00;2.00;;;;;;;;5079148;28;45414;-77
2024/02/11 10:16:41;;;;;;;;;5.33;4.33;;;;;;;;5077487;28;45342;-76
2024/02/11 10:19:07;;;;;;;;;2.33;2.33;;;;;;;;5079257;27;45381;-76
2024/02/11 10:21:33;;;;;;;;;3.00;3.00;;;;;;;;5079222;27;45310;-77
2024/02/11 10:23:59;;;;;;;;;3.67;3.33;;;;;;;;5078059;28;45362;-77
2024/02/11 10:26:24;;;;;;;;;6.33;4.67;;;;;;;;5078843;27;45477;-76
2024/02/11 10:28:49;;;;;;;;;4.00;4.00;;;;;;;;5079449;28;45390;-75
2024/02/11 10:31:15;;;;;;;;;3.67;3.00;;;;;;;;5079038;27;45394;-75
2024/02/11 10:33:41;;;;;;;;;3.00;3.00;;;;;;;;5078940;27;46868;-77
2024/02/11 10:39:19;;;;;;;;;3.33;3.33;;;;;;;;5073306;28;45456;-77
2024/02/11 10:41:45;;;;;;;;;2.00;2.00;;;;;;;;5064378;28;45537;-76
2024/02/11 10:44:10;;;;;;;;;4.00;3.33;;;;;;;;5062003;28;45326;-74
2024/02/11 10:46:36;;;;;;;;;4.00;4.00;;;;;;;;5061040;28;45366;-75
2024/02/11 10:49:01;;;;;;;;;3.00;2.00;;;;;;;;5061805;28;45459;-75
2024/02/11 10:51:34;;;;;;;;;4.33;4.33;;;;;;;;5060826;28;46284;-75
2024/02/11 10:54:01;;;;;;;;;2.00;2.00;;;;;;;;5061938;28;46391;-78
2024/02/11 10:56:29;;;;;;;;;4.67;3.00;;;;;;;;5060926;28;45928;-76
2024/02/11 10:59:16;;;;;;;;;2.33;2.33;;;;;;;;5080467;28;45331;-75
2024/02/11 11:01:42;;;;;;;;;2.00;1.67;;;;;;;;5061502;28;45267;-76
2024/02/11 11:04:10;;;;;;;;;3.67;3.33;;;;;;;;5061341;28;45396;-76
2024/02/11 11:06:36;;;;;;;;;1.00;1.00;;;;;;;;5059465;28;45402;-75
2024/02/11 11:09:02;;;;;;;;;2.00;2.00;;;;;;;;5062120;28;45172;-77
2024/02/11 11:11:27;;;;;;;;;3.00;3.00;;;;;;;;5060396;28;47536;-76
2024/02/11 11:13:57;;;;;;;;;1.00;1.00;;;;;;;;5062132;28;46686;-77
2024/02/11 11:16:34;;;;;;;;;3.00;2.00;;;;;;;;5061555;28;45352;-76
2024/02/11 11:19:02;;;;;;;;;2.00;2.00;;;;;;;;5061554;28;45346;-78
2024/02/11 11:21:28;;;;;;;;;2.00;2.00;;;;;;;;5061682;28;45249;-77
2024/02/11 11:23:53;;;;;;;;;2.67;1.00;;;;;;;;5061746;28;46483;-77
2024/02/11 11:26:19;;;;;;;;;4.00;2.00;;;;;;;;5058526;28;45532;-77
2024/02/11 11:28:44;;;;;;;;;8.00;5.00;;;;;;;;5058174;28;45590;-79
2024/02/11 11:31:11;;;;;;;;;0.33;0.00;;;;;;;;5056731;28;47173;-77
2024/02/11 11:33:36;;;;;;;;;2.67;2.67;;;;;;;;5056269;28;47063;-78
2024/02/11 11:36:02;;;;;;;;;3.00;3.00;;;;;;;;5059019;28;45326;-78
2024/02/11 11:38:28;;;;;;;;;3.00;3.00;;;;;;;;5059325;28;45421;-78
2024/02/11 11:40:54;;;;;;;;;2.00;2.00;;;;;;;;5060021;28;45449;-77
2024/02/11 11:43:28;;;;;;;;;3.00;3.00;;;;;;;;5059523;28;46356;-77
2024/02/11 11:45:57;;;;;;;;;1.33;1.00;;;;;;;;5060952;28;45497;-79
2024/02/11 11:48:23;;;;;;;;;3.00;3.00;;;;;;;;5059133;28;45161;-79
2024/02/11 11:50:55;;;;;;;;;2.67;2.67;;;;;;;;5060803;28;45312;-79
2024/02/11 11:53:21;;;;;;;;;0.00;0.00;;;;;;;;5060743;28;46630;-78
2024/02/11 11:55:50;;;;;;;;;2.33;2.33;;;;;;;;5060912;28;45250;-78
2024/02/11 11:58:23;;;;;;;;;0.67;0.67;;;;;;;;5072484;28;45252;-78
2024/02/11 12:00:59;;;;;;;;;3.00;3.00;;;;;;;;5060593;28;45961;-76
2024/02/11 12:03:24;;;;;;;;;3.00;2.00;;;;;;;;5058828;28;47522;-76
2024/02/11 12:05:50;;;;;;;;;1.67;1.00;;;;;;;;5060635;28;45421;-77
2024/02/11 12:08:15;;;;;;;;;2.33;1.67;;;;;;;;5060485;28;45463;-77
2024/02/11 12:10:40;;;;;;;;;4.00;4.00;;;;;;;;5059284;28;45915;-77
2024/02/11 12:13:09;;;;;;;;;2.00;2.00;;;;;;;;5059104;28;48123;-78
2024/02/11 12:15:34;;;;;;;;;3.00;3.00;;;;;;;;5060480;28;45457;-78
2024/02/11 12:17:59;;;;;;;;;3.00;3.00;;;;;;;;5058860;28;45364;-77
2024/02/11 12:20:25;;;;;;;;;2.00;2.00;;;;;;;;5060503;28;45268;-77
2024/02/11 12:22:50;;;;;;;;;5.00;3.33;;;;;;;;5060087;28;46001;-78
2024/02/11 12:25:20;;;;;;;;;3.00;1.00;;;;;;;;5060521;28;45308;-78
2024/02/11 12:27:48;;;;;;;;;4.00;3.00;;;;;;;;5060404;28;45307;-79
2024/02/11 12:30:22;;;;;;;;;1.33;1.33;;;;;;;;5059936;28;45395;-78
2024/02/11 12:32:48;;;;;;;;;2.33;2.33;;;;;;;;5058919;28;47621;-79
2024/02/11 12:35:13;;;;;;;;;2.00;1.67;;;;;;;;5059874;28;45347;-79
2024/02/11 12:37:38;;;;;;;;;2.67;2.33;;;;;;;;5060321;28;45307;-79
2024/02/11 12:40:05;;;;;;;;;1.00;1.00;;;;;;;;5058667;28;46039;-78
2024/02/11 12:42:30;;;;;;;;;0.00;0.00;;;;;;;;5058641;28;47652;-78
2024/02/11 12:44:56;;;;;;;;;1.00;1.00;;;;;;;;5059763;28;45402;-76
2024/02/11 12:47:21;;;;;;;;;2.33;2.33;;;;;;;;5060074;28;45461;-79
2024/02/11 12:49:47;;;;;;;;;1.00;1.00;;;;;;;;5058326;28;46217;-78
2024/02/11 12:52:12;;;;;;;;;1.00;1.00;;;;;;;;5059922;28;46108;-78
2024/02/11 12:54:37;;;;;;;;;2.67;2.33;;;;;;;;5058542;28;45276;-77
2024/02/11 12:57:05;;;;;;;;;2.00;1.00;;;;;;;;5065470;28;45190;-79
2024/02/11 12:59:30;;;;;;;;;3.67;2.33;;;;;;;;5063318;28;46356;-78
2024/02/11 13:01:57;;;;;;;;;3.00;3.00;;;;;;;;5059619;28;46013;-78
2024/02/11 13:04:22;;;;;;;;;2.00;2.00;;;;;;;;5059560;28;45464;-79
2024/02/11 13:06:47;;;;;;;;;3.00;3.00;;;;;;;;5059966;28;45441;-76
2024/02/11 13:09:13;;;;;;;;;5.33;3.00;;;;;;;;5059490;28;45466;-80
2024/02/11 13:11:39;;;;;;;;;3.67;3.00;;;;;;;;5058523;28;47018;-78
2024/02/11 13:14:04;;;;;;;;;3.00;3.00;;;;;;;;5059297;28;45384;-79
2024/02/11 13:16:29;;;;;;;;;2.67;1.00;;;;;;;;5058278;28;45382;-79
2024/02/11 13:18:54;;;;;;;;;2.00;2.00;;;;;;;;5059279;28;45435;-79
2024/02/11 13:21:19;;;;;;;;;3.00;3.00;;;;;;;;5059820;28;46444;-78
2024/02/11 13:23:45;;;;;;;;;2.00;1.00;;;;;;;;5057939;28;45374;-80
2024/02/11 13:26:10;;;;;;;;;2.00;1.00;;;;;;;;5059480;28;45410;-80
2024/02/11 13:28:35;;;;;;;;;2.33;2.33;;;;;;;;5059319;28;45330;-78
2024/02/11 13:31:02;;;;;;;;;1.00;1.00;;;;;;;;5059217;28;45893;-79
2024/02/11 13:33:31;;;;;;;;;2.00;2.00;;;;;;;;5057850;28;45272;-78
2024/02/11 13:35:56;;;;;;;;;0.67;0.67;;;;;;;;5058999;28;45456;-78
2024/02/11 13:38:22;;;;;;;;;2.00;1.00;;;;;;;;5059291;28;45614;-78
2024/02/11 13:40:48;;;;;;;;;2.00;2.00;;;;;;;;5059545;28;46138;-79
2024/02/11 13:43:14;;;;;;;;;1.67;1.67;;;;;;;;5059035;28;45341;-78
2024/02/11 13:45:39;;;;;;;;;2.00;2.00;;;;;;;;5059521;28;45446;-77
2024/02/11 13:48:05;;;;;;;;;2.00;2.00;;;;;;;;5059293;28;45473;-78
2024/02/11 13:50:31;;;;;;;;;2.00;1.67;;;;;;;;5059253;28;45356;-77
2024/02/11 13:53:01;;;;;;;;;2.00;2.00;;;;;;;;5059306;28;45400;-78
2024/02/11 13:55:26;;;;;;;;;1.00;1.00;;;;;;;;5059472;28;45496;-78
2024/02/11 13:57:52;;;;;;;;;2.67;2.67;;;;;;;;5069648;28;47256;-77
2024/02/11 14:00:17;;;;;;;;;3.00;3.00;;;;;;;;5079372;28;46086;-76
2024/02/11 14:02:43;;;;;;;;;3.00;3.00;;;;;;;;5078258;28;45477;-79
2024/02/11 14:05:08;;;;;;;;;1.67;1.67;;;;;;;;5077683;28;45390;-78
2024/02/11 14:07:33;;;;;;;;;2.00;1.67;;;;;;;;5079538;27;45265;-78
2024/02/11 14:10:00;;;;;;;;;2.67;2.33;;;;;;;;5079427;27;46178;-78
2024/02/11 14:12:25;;;;;;;;;2.00;2.00;;;;;;;;5083050;27;45358;-78
2024/02/11 14:14:53;;;;;;;;;2.67;2.67;;;;;;;;5083121;27;45414;-78
2024/02/11 14:17:19;;;;;;;;;3.00;3.00;;;;;;;;5077873;27;45897;-78
2024/02/11 14:19:44;;;;;;;;;4.67;2.33;;;;;;;;5062248;28;46185;-77
2024/02/11 14:22:10;;;;;;;;;3.00;3.00;;;;;;;;5062404;28;45235;-77
2024/02/11 14:24:35;;;;;;;;;2.33;2.33;;;;;;;;5062719;28;45288;-78
2024/02/11 14:27:01;;;;;;;;;3.67;2.33;;;;;;;;5061348;28;46325;-77
2024/02/11 14:29:29;;;;;;;;;2.33;2.33;;;;;;;;5062294;28;46239;-77
2024/02/11 14:31:54;;;;;;;;;6.00;6.00;;;;;;;;5061040;28;45408;-78
2024/02/11 14:34:19;;;;;;;;;2.00;2.00;;;;;;;;5060635;28;45272;-77
2024/02/11 14:36:45;;;;;;;;;6.33;5.67;;;;;;;;5042164;28;45346;-78